Time;durP1;ratioP1;P1;durP2;ratioP2;P2;SDS_P1;SDS_P2;PMS_P1;PMS_P2;Temp;Humidity;BMP_temperature;BMP_pressure;BME280_temperature;BME280_humidity;BME280_pressure;Samples;Min_cycle;Max_cycle;Signal;HPM_P1;HPM_P2
2022/07/26 00:01:38;;;;;;;1.70;1.17;;;22.70;67.70;;;;;;5007660;28;20496;-88
2022/07/26 00:04:05;;;;;;;2.00;1.20;;;22.60;67.70;;;;;;5017795;28;20455;-88
2022/07/26 00:06:31;;;;;;;1.57;0.83;;;22.60;68.10;;;;;;5035997;28;20448;-86
2022/07/26 00:08:58;;;;;;;1.50;1.20;;;22.60;68.80;;;;;;5026816;28;20493;-85
2022/07/26 00:11:28;;;;;;;1.40;1.10;;;22.60;68.30;;;;;;5036401;28;20470;-87
2022/07/26 00:13:55;;;;;;;1.27;1.00;;;22.50;68.50;;;;;;5028842;28;20504;-84
2022/07/26 00:16:22;;;;;;;2.00;1.53;;;22.50;69.30;;;;;;5039628;28;20454;-85
2022/07/26 00:18:49;;;;;;;3.13;1.17;;;22.60;68.40;;;;;;5032123;28;20501;-86
2022/07/26 00:21:16;;;;;;;1.40;1.00;;;22.70;68.20;;;;;;5023481;28;20478;-86
2022/07/26 00:23:43;;;;;;;1.00;0.90;;;22.50;68.30;;;;;;5036402;28;20474;-86
2022/07/26 00:26:10;;;;;;;1.10;0.90;;;22.50;68.70;;;;;;5039664;28;20477;-86
2022/07/26 00:28:37;;;;;;;2.30;1.00;;;22.50;68.80;;;;;;5027595;28;20509;-85
2022/07/26 00:31:04;;;;;;;1.13;1.00;;;22.50;68.90;;;;;;5039893;28;20466;-88
2022/07/26 00:33:32;;;;;;;1.20;0.90;;;22.50;68.90;;;;;;5019734;28;20469;-90
2022/07/26 00:35:58;;;;;;;2.63;1.30;;;22.40;69.00;;;;;;5010871;28;20451;-87
2022/07/26 00:38:25;;;;;;;2.07;1.00;;;22.50;69.30;;;;;;5038366;28;20480;-90
2022/07/26 00:40:52;;;;;;;1.83;1.07;;;22.40;69.10;;;;;;5036688;28;20454;-89
2022/07/26 00:43:19;;;;;;;1.27;0.80;;;22.40;69.60;;;;;;5028407;28;21211;-87
2022/07/26 00:45:46;;;;;;;2.60;1.37;;;22.30;69.70;;;;;;5013278;28;20438;-89
2022/07/26 00:48:13;;;;;;;1.97;1.13;;;22.30;69.90;;;;;;5028287;28;20454;-86
2022/07/26 00:50:39;;;;;;;3.33;1.20;;;22.30;70.00;;;;;;5031293;28;20849;-88
2022/07/26 00:53:09;;;;;;;1.53;0.90;;;22.20;70.30;;;;;;5014348;28;20477;-85
2022/07/26 00:55:36;;;;;;;4.80;1.53;;;22.20;71.30;;;;;;5003306;28;20446;-88
2022/07/26 00:58:05;;;;;;;1.37;1.00;;;22.10;71.90;;;;;;5027046;28;20434;-85
2022/07/26 01:00:32;;;;;;;1.20;1.10;;;22.00;73.00;;;;;;5011254;28;20481;-86
2022/07/26 01:02:59;;;;;;;1.33;1.00;;;22.00;73.70;;;;;;5030096;28;20454;-85
2022/07/26 01:05:27;;;;;;;2.40;1.17;;;22.00;74.40;;;;;;5009169;28;20502;-86
2022/07/26 01:07:54;;;;;;;2.77;1.00;;;21.90;74.80;;;;;;5022926;28;20462;-85
2022/07/26 01:10:21;;;;;;;1.87;1.10;;;22.00;75.60;;;;;;5033776;28;20456;-85
2022/07/26 01:12:48;;;;;;;3.30;1.33;;;21.90;76.10;;;;;;5037484;28;20438;-88
2022/07/26 01:15:16;;;;;;;4.00;1.50;;;21.90;76.70;;;;;;5036754;28;20438;-88
2022/07/26 01:17:44;;;;;;;3.07;1.47;;;21.90;77.20;;;;;;5035293;28;20474;-87
2022/07/26 01:20:12;;;;;;;5.60;1.20;;;21.80;78.00;;;;;;5037273;28;20474;-87
2022/07/26 01:22:45;;;;;;;4.90;1.60;;;21.70;78.80;;;;;;5034219;28;20457;-92
2022/07/26 01:25:12;;;;;;;2.57;1.17;;;21.60;79.60;;;;;;5027668;28;20454;-90
2022/07/26 01:27:39;;;;;;;6.93;1.80;;;21.60;80.40;;;;;;5033614;28;20457;-88
2022/07/26 01:30:09;;;;;;;8.27;1.27;;;21.60;81.00;;;;;;5012924;28;20471;-88
2022/07/26 01:32:36;;;;;;;2.70;1.57;;;21.50;81.50;;;;;;5027345;28;20537;-88
2022/07/26 01:35:04;;;;;;;3.90;1.40;;;21.50;82.10;;;;;;5032401;28;20465;-87
2022/07/26 01:37:31;;;;;;;1.53;1.13;;;21.50;82.60;;;;;;5030601;28;20430;-87
2022/07/26 01:39:59;;;;;;;4.93;1.60;;;21.50;83.20;;;;;;5005669;28;20514;-87
2022/07/26 01:42:28;;;;;;;2.57;1.37;;;21.40;84.10;;;;;;5027376;28;20503;-89
2022/07/26 01:45:04;;;;;;;2.00;1.00;;;21.30;85.00;;;;;;5031175;28;20461;-89
2022/07/26 01:47:33;;;;;;;3.07;1.83;;;21.20;85.90;;;;;;5029407;28;20504;-89
2022/07/26 01:50:01;;;;;;;3.30;1.93;;;21.20;86.50;;;;;;5012842;28;20549;-88
2022/07/26 01:52:28;;;;;;;3.80;1.40;;;21.20;87.00;;;;;;5031262;28;20481;-89
2022/07/26 01:54:54;;;;;;;2.40;1.20;;;21.20;87.40;;;;;;5030574;28;20454;-87
2022/07/26 01:57:21;;;;;;;5.13;1.57;;;21.20;87.90;;;;;;5011666;28;20457;-85
2022/07/26 01:59:48;;;;;;;2.87;1.20;;;21.20;88.40;;;;;;5028001;28;20478;-87
2022/07/26 02:02:15;;;;;;;4.37;1.40;;;21.20;88.60;;;;;;5029322;28;20439;-87
2022/07/26 02:05:00;;;;;;;2.40;1.20;;;21.10;89.00;;;;;;5023721;28;20454;-89
2022/07/26 02:07:37;;;;;;;3.97;1.40;;;21.10;89.60;;;;;;5020622;28;20469;-86
2022/07/26 02:10:04;;;;;;;3.07;1.30;;;21.20;89.80;;;;;;5029765;28;20557;-86
2022/07/26 02:12:31;;;;;;;2.50;1.30;;;21.20;89.80;;;;;;5026168;28;20443;-85
2022/07/26 02:14:58;;;;;;;2.50;1.43;;;21.10;90.00;;;;;;5010760;28;20517;-84
2022/07/26 02:17:25;;;;;;;4.80;1.80;;;21.10;90.20;;;;;;5027859;28;20457;-86
2022/07/26 02:19:51;;;;;;;3.30;1.40;;;21.10;90.30;;;;;;5022782;28;21011;-85
2022/07/26 02:22:18;;;;;;;5.80;1.70;;;21.10;90.40;;;;;;5012704;28;20441;-88
2022/07/26 02:24:46;;;;;;;5.20;2.10;;;21.20;90.40;;;;;;5029925;28;20909;-87
2022/07/26 02:27:19;;;;;;;3.40;1.97;;;21.20;90.30;;;;;;5029562;28;20756;-88
2022/07/26 02:29:46;;;;;;;2.13;1.80;;;21.20;90.40;;;;;;5014236;28;20484;-87
2022/07/26 02:32:13;;;;;;;4.00;1.40;;;21.20;90.40;;;;;;5018523;28;20458;-85
2022/07/26 02:34:41;;;;;;;2.67;1.80;;;21.40;90.10;;;;;;5028835;28;21068;-87
2022/07/26 02:37:07;;;;;;;6.40;1.67;;;21.40;90.30;;;;;;5029088;28;20446;-87
2022/07/26 02:39:34;;;;;;;2.03;1.50;;;21.30;90.30;;;;;;5028962;28;20545;-89
2022/07/26 02:42:02;;;;;;;4.63;1.70;;;21.20;90.40;;;;;;5030151;28;20459;-87
2022/07/26 02:44:29;;;;;;;6.00;2.20;;;21.20;90.80;;;;;;5029786;28;20453;-86
2022/07/26 02:46:56;;;;;;;6.20;1.80;;;21.10;91.00;;;;;;5028900;28;20458;-88
2022/07/26 02:49:22;;;;;;;4.00;1.80;;;21.10;91.20;;;;;;5012708;28;20446;-87
2022/07/26 02:51:52;;;;;;;4.93;1.50;;;21.10;91.30;;;;;;5029465;28;20478;-86
2022/07/26 02:54:21;;;;;;;5.10;2.00;;;21.10;91.40;;;;;;5019906;28;20453;-88
2022/07/26 02:56:49;;;;;;;2.23;1.33;;;21.10;91.40;;;;;;5028497;28;20585;-86
2022/07/26 02:59:15;;;;;;;4.30;1.70;;;21.10;91.60;;;;;;5029590;28;20472;-86
2022/07/26 03:01:42;;;;;;;5.13;2.17;;;21.10;92.00;;;;;;5009251;28;20467;-87
2022/07/26 03:04:10;;;;;;;3.40;2.67;;;21.10;91.70;;;;;;5026659;28;20458;-86
2022/07/26 03:06:37;;;;;;;5.43;1.60;;;21.00;91.90;;;;;;5025789;28;20449;-86
2022/07/26 03:09:04;;;;;;;3.50;1.57;;;21.00;92.00;;;;;;5031321;28;20493;-87
2022/07/26 03:11:30;;;;;;;4.43;2.00;;;21.40;91.60;;;;;;5030651;28;20466;-86
2022/07/26 03:13:57;;;;;;;4.20;1.90;;;21.30;91.60;;;;;;5030550;28;20457;-85
2022/07/26 03:16:24;;;;;;;3.73;1.43;;;21.20;91.70;;;;;;5024475;28;20430;-85
2022/07/26 03:18:55;;;;;;;7.33;1.50;;;21.20;92.20;;;;;;5025040;28;20549;-85
2022/07/26 03:21:22;;;;;;;4.20;2.40;;;21.30;91.80;;;;;;5024273;28;20519;-88
2022/07/26 03:23:48;;;;;;;3.07;1.70;;;21.20;91.90;;;;;;5021603;28;20450;-86
2022/07/26 03:26:15;;;;;;;2.43;1.70;;;20.90;92.20;;;;;;5035824;28;20509;-84
2022/07/26 03:28:43;;;;;;;6.40;1.63;;;21.00;92.70;;;;;;5035941;28;20545;-88
2022/07/26 03:31:11;;;;;;;5.50;1.30;;;20.90;92.80;;;;;;5034363;28;20458;-89
2022/07/26 03:33:39;;;;;;;4.80;2.13;;;20.90;92.90;;;;;;5020498;28;20517;-89
2022/07/26 03:36:10;;;;;;;3.77;1.93;;;20.80;93.10;;;;;;5020494;28;20447;-88
2022/07/26 03:38:38;;;;;;;2.87;1.53;;;20.90;93.10;;;;;;5035364;28;20533;-90
2022/07/26 03:41:05;;;;;;;6.40;1.73;;;20.90;93.10;;;;;;5033803;28;20485;-88
2022/07/26 03:43:32;;;;;;;1.80;1.70;;;20.70;93.30;;;;;;5026703;28;20438;-90
2022/07/26 03:46:01;;;;;;;2.10;1.60;;;20.60;93.80;;;;;;5035561;28;20450;-86
2022/07/26 03:48:30;;;;;;;5.50;1.97;;;20.60;94.10;;;;;;5030300;28;20438;-88
2022/07/26 03:50:56;;;;;;;5.23;1.63;;;20.60;94.20;;;;;;5020049;28;20484;-90
2022/07/26 03:53:23;;;;;;;3.80;2.13;;;20.60;94.20;;;;;;5034711;28;20481;-86
2022/07/26 03:58:37;;;;;;;5.03;2.17;;;20.70;94.30;;;;;;5031072;28;20446;-86
2022/07/26 04:01:04;;;;;;;3.63;1.83;;;20.70;94.30;;;;;;5017660;28;20541;-88
2022/07/26 04:03:30;;;;;;;8.57;2.33;;;20.70;94.20;;;;;;5024707;28;20497;-89
2022/07/26 04:05:57;;;;;;;4.60;2.57;;;20.80;94.20;;;;;;5026394;28;20461;-87
2022/07/26 04:08:25;;;;;;;5.90;2.47;;;20.80;94.20;;;;;;5018518;28;20508;-85
2022/07/26 04:10:52;;;;;;;4.80;2.80;;;20.70;94.30;;;;;;5025574;28;20505;-85
2022/07/26 04:13:19;;;;;;;7.47;2.20;;;20.70;94.40;;;;;;5009868;28;20544;-84
2022/07/26 04:15:46;;;;;;;7.33;2.07;;;20.80;94.40;;;;;;5006178;28;20447;-85
2022/07/26 04:18:13;;;;;;;3.60;1.93;;;20.70;94.40;;;;;;5007936;28;20538;-86
2022/07/26 04:20:42;;;;;;;4.53;2.40;;;21.00;94.30;;;;;;5021961;28;20486;-86
2022/07/26 04:23:18;;;;;;;4.53;3.17;;;20.80;94.10;;;;;;5029937;28;20489;-88
2022/07/26 04:25:48;;;;;;;6.47;1.80;;;20.80;94.30;;;;;;5029804;28;20521;-88
2022/07/26 04:28:17;;;;;;;5.17;2.10;;;20.70;94.40;;;;;;5032571;28;20510;-87
2022/07/26 04:30:51;;;;;;;3.63;2.10;;;20.70;94.60;;;;;;5028668;28;20488;-86
2022/07/26 04:33:18;;;;;;;2.90;2.20;;;20.70;94.70;;;;;;5032183;28;20514;-88
2022/07/26 04:35:52;;;;;;;3.83;1.80;;;20.70;94.80;;;;;;5033153;28;20465;-88
2022/07/26 04:38:27;;;;;;;4.30;2.43;;;20.50;95.00;;;;;;5008342;28;20465;-86
2022/07/26 04:40:56;;;;;;;7.57;2.67;;;20.60;95.10;;;;;;5011126;28;20501;-88
2022/07/26 04:43:26;;;;;;;3.67;2.13;;;20.70;95.00;;;;;;5035623;28;20540;-86
2022/07/26 04:46:00;;;;;;;3.90;2.20;;;20.80;94.90;;;;;;5029045;28;20460;-87
2022/07/26 04:48:30;;;;;;;3.30;2.33;;;20.80;94.90;;;;;;5015802;28;20462;-87
2022/07/26 04:50:59;;;;;;;4.03;2.40;;;20.70;94.90;;;;;;5028858;28;21043;-87
2022/07/26 04:53:33;;;;;;;4.20;2.60;;;20.70;95.00;;;;;;5031496;28;20450;-89
2022/07/26 04:56:02;;;;;;;5.00;2.70;;;20.80;95.10;;;;;;5031699;28;20537;-87
2022/07/26 04:58:37;;;;;;;6.73;2.43;;;20.90;94.70;;;;;;5013787;28;20450;-88
2022/07/26 05:01:08;;;;;;;3.10;2.30;;;20.80;94.90;;;;;;5029547;28;20489;-88
2022/07/26 05:03:39;;;;;;;3.47;3.13;;;20.80;95.10;;;;;;5032462;28;20539;-88
2022/07/26 05:06:08;;;;;;;6.53;3.23;;;20.90;95.20;;;;;;5032927;28;20485;-87
2022/07/26 05:08:40;;;;;;;6.53;2.67;;;21.10;94.60;;;;;;5017374;28;20529;-88
2022/07/26 05:11:15;;;;;;;5.80;3.10;;;20.90;94.90;;;;;;5030148;28;20470;-86
2022/07/26 05:13:44;;;;;;;6.77;3.03;;;20.80;95.10;;;;;;5013255;28;20456;-85
2022/07/26 05:16:13;;;;;;;4.33;2.27;;;20.90;95.30;;;;;;5030465;28;20474;-89
2022/07/26 05:18:47;;;;;;;4.20;2.60;;;20.80;95.40;;;;;;5026581;28;20459;-89
2022/07/26 05:21:17;;;;;;;5.53;2.50;;;20.80;95.50;;;;;;5028344;28;21053;-86
2022/07/26 05:23:46;;;;;;;4.43;2.40;;;20.80;95.60;;;;;;5031919;28;20461;-88
2022/07/26 05:26:23;;;;;;;8.93;3.07;;;20.80;95.60;;;;;;5003050;28;20455;-88
2022/07/26 05:28:53;;;;;;;6.17;3.07;;;20.80;95.80;;;;;;5012503;28;20457;-87
2022/07/26 05:31:22;;;;;;;3.40;2.60;;;20.70;95.90;;;;;;5032209;28;20470;-86
2022/07/26 05:33:49;;;;;;;4.27;2.63;;;20.70;96.10;;;;;;5031187;28;20477;-89
2022/07/26 05:36:18;;;;;;;6.00;3.00;;;20.70;96.10;;;;;;5185081;22;20512;-87
2022/07/26 05:38:47;;;;;;;7.23;3.30;;;20.70;96.30;;;;;;5029796;28;20434;-86
2022/07/26 05:41:28;;;;;;;8.67;3.20;;;21.10;95.80;;;;;;5008452;28;20526;-87
2022/07/26 05:44:03;;;;;;;6.43;3.63;;;21.20;95.40;;;;;;5004642;28;20444;-87
2022/07/26 05:46:31;;;;;;;7.63;3.67;;;21.30;95.10;;;;;;5001692;28;20435;-86
2022/07/26 05:49:03;;;;;;;5.90;3.20;;;21.10;95.30;;;;;;4994529;28;20462;-87
2022/07/26 05:51:31;;;;;;;9.13;3.83;;;21.00;95.90;;;;;;4993216;28;20483;-87
2022/07/26 05:54:01;;;;;;;4.83;3.20;;;21.20;95.50;;;;;;4993916;28;20447;-86
2022/07/26 05:56:39;;;;;;;7.40;3.70;;;21.10;95.80;;;;;;5010325;28;20502;-85
2022/07/26 05:59:09;;;;;;;5.83;3.77;;;20.90;96.00;;;;;;5013683;28;20576;-88
2022/07/26 06:01:38;;;;;;;5.13;3.67;;;20.80;96.40;;;;;;5008223;28;20547;-86
2022/07/26 06:04:13;;;;;;;6.47;3.73;;;20.70;96.70;;;;;;5003262;28;20451;-87
2022/07/26 06:06:42;;;;;;;10.47;4.33;;;20.70;97.00;;;;;;5008661;28;20455;-85
2022/07/26 06:09:11;;;;;;;4.53;3.50;;;20.90;96.50;;;;;;5125889;23;20500;-86
2022/07/26 06:11:45;;;;;;;5.80;3.87;;;20.80;96.80;;;;;;5031073;28;20518;-87
2022/07/26 06:14:15;;;;;;;9.43;3.90;;;20.70;97.20;;;;;;5011765;28;20513;-86
2022/07/26 06:16:44;;;;;;;6.10;4.00;;;20.70;97.30;;;;;;5009268;28;20491;-90
2022/07/26 06:19:14;;;;;;;8.87;3.97;;;20.70;97.40;;;;;;5011105;28;20454;-86
2022/07/26 06:21:51;;;;;;;7.03;4.40;;;20.70;97.60;;;;;;5029262;28;20532;-87
2022/07/26 06:24:22;;;;;;;6.60;4.30;;;20.70;97.60;;;;;;5009925;28;20445;-87
2022/07/26 06:26:52;;;;;;;11.13;4.20;;;20.80;97.60;;;;;;5011818;28;20518;-89
2022/07/26 06:29:25;;;;;;;6.80;3.80;;;20.80;97.60;;;;;;5011610;28;20489;-88
2022/07/26 06:31:55;;;;;;;9.20;4.27;;;20.80;97.50;;;;;;5009917;28;20460;-87
2022/07/26 06:34:23;;;;;;;8.63;4.20;;;20.80;97.60;;;;;;5026510;28;20493;-88
2022/07/26 06:36:59;;;;;;;10.97;4.40;;;20.90;97.80;;;;;;5009717;28;20493;-88
2022/07/26 06:39:33;;;;;;;9.07;4.53;;;21.00;97.30;;;;;;5023036;28;20463;-89
2022/07/26 06:42:00;;;;;;;11.57;5.07;;;20.90;97.50;;;;;;5022140;28;20455;-88
2022/07/26 06:44:31;;;;;;;6.70;3.93;;;20.90;97.70;;;;;;5022236;28;20446;-86
2022/07/26 06:46:58;;;;;;;9.40;4.27;;;20.80;97.80;;;;;;5023912;28;20514;-84
2022/07/26 06:49:34;;;;;;;9.10;4.20;;;20.80;98.00;;;;;;5008766;28;20457;-85
2022/07/26 06:52:06;;;;;;;6.30;4.00;;;20.80;98.10;;;;;;5027977;28;20458;-88
2022/07/26 06:54:36;;;;;;;9.40;4.40;;;20.80;98.20;;;;;;5018283;28;20924;-86
2022/07/26 06:57:02;;;;;;;10.23;5.80;;;21.10;98.20;;;;;;5010362;28;20537;-90
2022/07/26 06:59:29;;;;;;;15.47;8.53;;;21.40;97.30;;;;;;5004595;28;20456;-87
2022/07/26 07:01:57;;;;;;;6.97;4.93;;;21.30;97.30;;;;;;5009669;28;20454;-84
2022/07/26 07:04:30;;;;;;;10.27;5.30;;;21.20;97.50;;;;;;5019836;28;20443;-86
2022/07/26 07:07:03;;;;;;;11.13;4.77;;;21.10;98.00;;;;;;5021630;28;20458;-87
2022/07/26 07:09:31;;;;;;;14.60;4.90;;;21.00;98.20;;;;;;5014878;28;20447;-86
2022/07/26 07:12:00;;;;;;;8.33;4.40;;;21.00;98.80;;;;;;5026056;28;20874;-87
2022/07/26 07:14:33;;;;;;;10.27;5.00;;;21.00;98.50;;;;;;5029434;28;20489;-85
2022/07/26 07:17:01;;;;;;;10.30;4.67;;;21.00;98.50;;;;;;5023589;28;20557;-85
2022/07/26 07:19:27;;;;;;;9.30;4.70;;;21.00;98.50;;;;;;5019309;28;20450;-84
2022/07/26 07:21:54;;;;;;;8.83;4.93;;;21.00;98.60;;;;;;5028237;28;20486;-87
2022/07/26 07:24:22;;;;;;;10.50;4.77;;;21.00;98.60;;;;;;5020422;28;20458;-85
2022/07/26 07:26:49;;;;;;;7.30;5.10;;;20.90;98.60;;;;;;5021684;28;20474;-87
2022/07/26 07:29:29;;;;;;;8.53;6.17;;;21.00;98.70;;;;;;5027618;28;20497;-87
2022/07/26 07:31:59;;;;;;;9.97;6.07;;;21.00;98.60;;;;;;5020445;28;20489;-86
2022/07/26 07:34:28;;;;;;;7.03;5.17;;;21.10;98.60;;;;;;5025950;28;20498;-87
2022/07/26 07:36:55;;;;;;;8.53;5.60;;;21.10;98.40;;;;;;5035390;28;20454;-87
2022/07/26 07:39:24;;;;;;;10.70;6.70;;;21.10;98.40;;;;;;5044321;28;20454;-86
2022/07/26 07:41:52;;;;;;;10.93;7.07;;;21.10;98.50;;;;;;5046641;28;20482;-86
2022/07/26 07:44:19;;;;;;;11.77;7.33;;;21.20;98.60;;;;;;5025164;28;20446;-88
2022/07/26 07:46:47;;;;;;;13.00;7.90;;;21.20;98.50;;;;;;5030413;28;20599;-85
2022/07/26 07:49:14;;;;;;;16.90;7.23;;;21.30;98.50;;;;;;5044499;28;20458;-86
2022/07/26 07:51:41;;;;;;;8.87;7.90;;;21.30;98.30;;;;;;5025143;28;20500;-87
2022/07/26 07:54:11;;;;;;;15.13;7.77;;;21.40;98.20;;;;;;5039985;28;20521;-85
2022/07/26 07:56:37;;;;;;;12.80;7.47;;;21.40;98.00;;;;;;5027227;28;20545;-89
2022/07/26 07:59:06;;;;;;;8.93;6.40;;;21.40;98.00;;;;;;5031239;28;20454;-88
2022/07/26 08:01:43;;;;;;;9.03;6.80;;;21.40;98.10;;;;;;5024149;28;20482;-88
2022/07/26 08:04:19;;;;;;;11.00;7.40;;;21.60;97.80;;;;;;5029951;28;20604;-87
2022/07/26 08:06:49;;;;;;;9.80;8.00;;;21.70;97.80;;;;;;5022398;28;20459;-84
2022/07/26 08:09:19;;;;;;;16.37;8.20;;;21.60;97.60;;;;;;5016161;28;20470;-85
2022/07/26 08:11:48;;;;;;;12.20;8.90;;;21.60;97.70;;;;;;5028066;28;20547;-85
2022/07/26 08:14:18;;;;;;;13.90;8.83;;;21.60;97.60;;;;;;5024426;28;20582;-88
2022/07/26 08:16:50;;;;;;;10.17;9.00;;;21.60;97.60;;;;;;5009733;28;20538;-86
2022/07/26 08:19:18;;;;;;;11.33;8.63;;;21.70;97.70;;;;;;5035007;28;20916;-87
2022/07/26 08:21:57;;;;;;;12.20;9.63;;;21.70;97.60;;;;;;5023565;28;20552;-86
2022/07/26 08:24:28;;;;;;;11.63;10.40;;;21.70;97.60;;;;;;5016841;28;20470;-84
2022/07/26 08:26:58;;;;;;;11.70;10.60;;;21.80;97.50;;;;;;5006266;28;20465;-85
2022/07/26 08:29:27;;;;;;;14.50;12.50;;;21.60;97.50;;;;;;5030855;28;20441;-88
2022/07/26 08:31:54;;;;;;;15.30;10.90;;;21.50;97.80;;;;;;5045267;28;20447;-85
2022/07/26 08:34:30;;;;;;;12.60;10.67;;;21.50;97.90;;;;;;5022002;28;20449;-90
2022/07/26 08:36:57;;;;;;;11.50;10.40;;;21.50;98.10;;;;;;5030775;28;20455;-86
2022/07/26 08:39:41;;;;;;;14.00;11.00;;;21.70;98.10;;;;;;5014256;28;20459;-88
2022/07/26 08:42:27;;;;;;;14.40;12.10;;;22.10;97.40;;;;;;5027765;28;21047;-88
2022/07/26 08:44:53;;;;;;;13.27;10.97;;;22.30;96.60;;;;;;5022605;28;20469;-86
2022/07/26 08:47:24;;;;;;;14.53;11.20;;;22.30;96.20;;;;;;5002831;28;20466;-87
2022/07/26 08:50:01;;;;;;;15.07;11.67;;;22.50;96.10;;;;;;4993613;28;20466;-85
2022/07/26 08:52:29;;;;;;;12.43;10.73;;;22.50;96.00;;;;;;5021047;28;20489;-85
2022/07/26 08:54:58;;;;;;;16.33;10.40;;;22.50;95.80;;;;;;5018573;28;20465;-85
2022/07/26 08:57:30;;;;;;;12.80;9.73;;;22.60;95.60;;;;;;4996786;28;20468;-86
2022/07/26 09:00:13;;;;;;;12.93;9.90;;;22.50;95.40;;;;;;4997483;28;20479;-86
2022/07/26 09:02:50;;;;;;;12.00;10.30;;;22.10;95.90;;;;;;5000368;28;20565;-87
2022/07/26 09:05:28;;;;;;;12.27;9.80;;;22.20;96.20;;;;;;5022703;28;20450;-89
2022/07/26 09:08:08;;;;;;;11.83;10.30;;;22.20;96.40;;;;;;5010214;28;20442;-87
2022/07/26 09:10:38;;;;;;;9.80;8.80;;;22.90;96.10;;;;;;5021355;28;20482;-86
2022/07/26 09:13:15;;;;;;;9.93;8.90;;;23.90;93.50;;;;;;5032220;28;20553;-90
2022/07/26 09:15:42;;;;;;;9.73;8.73;;;24.20;92.20;;;;;;5048298;28;20525;-85
2022/07/26 09:18:25;;;;;;;10.53;9.47;;;24.30;92.00;;;;;;5032366;28;20446;-86
2022/07/26 09:21:01;;;;;;;10.90;8.63;;;24.20;92.10;;;;;;5030924;28;20485;-86
2022/07/26 09:23:45;;;;;;;9.77;8.80;;;24.50;91.50;;;;;;5031000;28;20492;-86
2022/07/26 09:26:18;;;;;;;8.57;7.70;;;25.10;90.20;;;;;;5028105;28;20530;-88
2022/07/26 09:29:10;;;;;;;9.97;8.50;;;25.40;89.20;;;;;;5027456;28;20467;-89
2022/07/26 09:31:51;;;;;;;10.20;7.10;;;26.20;87.00;;;;;;5025708;28;20538;-88
2022/07/26 09:34:25;;;;;;;7.50;6.60;;;26.00;83.70;;;;;;5031752;28;20529;-89
2022/07/26 09:36:53;;;;;;;10.53;7.50;;;25.30;86.10;;;;;;5027402;28;20469;-89
2022/07/26 09:39:23;;;;;;;9.10;6.80;;;25.60;86.10;;;;;;5030243;28;20477;-87
2022/07/26 09:42:08;;;;;;;7.30;6.60;;;25.90;85.20;;;;;;5026436;28;20569;-87
2022/07/26 09:44:56;;;;;;;8.17;6.70;;;26.00;83.20;;;;;;5022958;28;20789;-86
2022/07/26 09:47:36;;;;;;;9.27;7.80;;;25.20;84.80;;;;;;5029756;28;20446;-89
2022/07/26 09:50:21;;;;;;;8.57;7.77;;;24.60;87.60;;;;;;5022717;28;20466;-88
2022/07/26 09:53:05;;;;;;;7.20;6.57;;;24.30;87.80;;;;;;5037077;28;20483;-86
2022/07/26 09:55:54;;;;;;;7.47;6.73;;;24.30;88.80;;;;;;5022038;28;20529;-87
2022/07/26 09:58:22;;;;;;;10.17;6.27;;;24.50;89.20;;;;;;5017020;28;20502;-86
2022/07/26 10:00:49;;;;;;;7.87;6.30;;;25.20;86.70;;;;;;5031152;28;20888;-87
2022/07/26 10:03:17;;;;;;;7.90;6.80;;;25.50;85.10;;;;;;5044784;28;20445;-88
2022/07/26 10:05:44;;;;;;;7.60;6.90;;;25.20;85.20;;;;;;5024804;28;20462;-87
2022/07/26 10:08:12;;;;;;;8.20;6.90;;;25.00;85.80;;;;;;5023544;28;20514;-88
2022/07/26 10:10:48;;;;;;;11.70;7.10;;;25.20;85.30;;;;;;5028979;28;20504;-88
2022/07/26 10:13:15;;;;;;;10.10;6.80;;;25.10;84.50;;;;;;5031477;28;20453;-89
2022/07/26 10:15:46;;;;;;;7.50;6.80;;;25.10;85.40;;;;;;5035302;28;20457;-91
2022/07/26 10:18:36;;;;;;;8.97;6.07;;;26.00;82.50;;;;;;5035728;28;20454;-93
2022/07/26 10:21:25;;;;;;;8.17;7.37;;;26.00;81.40;;;;;;5028174;28;20480;-89
2022/07/26 10:24:25;;;;;;;6.17;5.60;;;26.10;81.50;;;;;;5028518;28;20442;-90
2022/07/26 10:26:53;;;;;;;5.23;4.73;;;26.40;78.70;;;;;;5030632;28;20426;-90
2022/07/26 10:29:25;;;;;;;7.17;5.77;;;26.90;75.80;;;;;;5020969;28;20442;-88
2022/07/26 10:32:15;;;;;;;5.77;4.60;;;27.40;72.90;;;;;;5043577;28;20498;-86
2022/07/26 10:34:56;;;;;;;6.07;3.80;;;27.30;72.30;;;;;;5029942;28;20446;-86
2022/07/26 10:37:26;;;;;;;4.67;3.80;;;27.40;69.40;;;;;;5029507;28;20446;-86
2022/07/26 10:40:21;;;;;;;6.43;3.60;;;28.50;67.60;;;;;;5056390;28;20582;-87
2022/07/26 10:42:48;;;;;;;4.00;2.40;;;28.50;64.10;;;;;;5041302;28;20457;-87
2022/07/26 10:45:17;;;;;;;4.03;2.90;;;28.20;64.50;;;;;;5031495;28;20454;-87
2022/07/26 10:48:17;;;;;;;5.30;3.43;;;28.40;63.20;;;;;;5040392;28;20496;-86
2022/07/26 10:50:53;;;;;;;4.93;3.40;;;28.10;63.80;;;;;;5035806;28;20454;-88
2022/07/26 10:53:25;;;;;;;3.30;3.00;;;28.00;64.30;;;;;;5032605;28;20499;-88
2022/07/26 10:55:54;;;;;;;10.40;2.83;;;28.00;62.20;;;;;;5032749;28;20474;-87
2022/07/26 10:58:23;;;;;;;3.83;3.07;;;29.80;59.20;;;;;;5026214;28;20517;-86
2022/07/26 11:01:31;;;;;;;4.93;2.70;;;30.30;56.00;;;;;;5028950;28;20470;-88
2022/07/26 11:04:16;;;;;;;5.53;4.90;;;29.10;56.40;;;;;;5012922;28;20489;-87
2022/07/26 11:06:44;;;;;;;3.10;2.77;;;28.80;57.80;;;;;;5046708;28;20442;-87
2022/07/26 11:09:11;;;;;;;5.90;3.27;;;28.70;57.60;;;;;;5046376;28;20441;-87
2022/07/26 11:11:40;;;;;;;3.10;2.80;;;28.50;58.50;;;;;;5026207;28;20479;-89
2022/07/26 11:14:16;;;;;;;2.90;2.67;;;28.60;59.20;;;;;;5019644;28;20458;-87
2022/07/26 11:16:51;;;;;;;4.33;2.90;;;29.00;57.50;;;;;;5022025;28;20458;-86
2022/07/26 11:19:26;;;;;;;4.00;3.60;;;28.60;58.20;;;;;;5022945;28;20468;-88
2022/07/26 11:21:57;;;;;;;3.20;3.00;;;28.50;58.00;;;;;;5022792;28;20501;-89
2022/07/26 11:24:39;;;;;;;4.47;2.97;;;28.10;58.80;;;;;;5035292;28;20445;-86
2022/07/26 11:27:06;;;;;;;3.70;2.67;;;27.40;60.70;;;;;;5035407;28;20477;-90
2022/07/26 11:29:37;;;;;;;4.23;3.00;;;27.00;62.60;;;;;;5050223;28;20457;-87
2022/07/26 11:32:16;;;;;;;4.93;2.90;;;26.60;64.60;;;;;;5043416;28;20457;-89
2022/07/26 11:34:44;;;;;;;6.30;4.10;;;26.20;66.40;;;;;;5033159;28;20449;-87
2022/07/26 11:37:11;;;;;;;5.40;3.83;;;25.90;67.40;;;;;;5031731;28;20498;-86
2022/07/26 11:39:39;;;;;;;4.30;3.47;;;25.80;68.20;;;;;;5026455;28;20454;-87
2022/07/26 11:42:10;;;;;;;5.40;3.40;;;25.70;68.10;;;;;;5026027;28;20474;-86
2022/07/26 11:44:49;;;;;;;4.17;3.50;;;25.60;68.30;;;;;;5035529;28;20453;-85
2022/07/26 11:47:19;;;;;;;5.60;3.70;;;25.50;68.60;;;;;;5020503;28;20524;-86
2022/07/26 11:49:49;;;;;;;5.33;3.33;;;25.50;68.30;;;;;;5030646;28;20450;-89
2022/07/26 11:52:32;;;;;;;7.73;3.70;;;25.30;67.70;;;;;;5030562;28;20465;-88
2022/07/26 11:55:00;;;;;;;5.73;3.70;;;25.00;66.50;;;;;;5035996;28;20450;-85
2022/07/26 11:57:42;;;;;;;4.20;3.00;;;24.80;68.30;;;;;;5030902;28;20510;-85
2022/07/26 12:00:09;;;;;;;3.70;3.47;;;24.50;68.60;;;;;;5047672;28;20461;-88
2022/07/26 12:02:36;;;;;;;5.60;3.30;;;24.30;72.40;;;;;;5027052;28;20485;-87
2022/07/26 12:05:19;;;;;;;3.90;3.60;;;24.30;75.20;;;;;;5030572;28;20466;-88
2022/07/26 12:08:01;;;;;;;4.20;3.80;;;24.20;75.00;;;;;;5024355;28;20453;-89
2022/07/26 12:10:29;;;;;;;4.00;3.30;;;24.00;76.40;;;;;;5044956;28;20511;-86
2022/07/26 12:13:10;;;;;;;3.53;3.20;;;24.00;75.20;;;;;;5051072;28;20462;-86
2022/07/26 12:15:51;;;;;;;3.70;3.40;;;23.90;74.10;;;;;;5023323;28;20625;-89
2022/07/26 12:18:25;;;;;;;3.67;3.30;;;23.80;74.80;;;;;;5027420;28;20458;-87
2022/07/26 12:21:04;;;;;;;5.70;2.80;;;23.80;73.60;;;;;;5029208;28;20477;-86
2022/07/26 12:23:44;;;;;;;4.23;3.10;;;23.80;73.60;;;;;;5039700;28;20473;-85
2022/07/26 12:26:22;;;;;;;4.83;3.20;;;23.80;72.60;;;;;;5035038;28;20454;-87
2022/07/26 12:28:50;;;;;;;4.30;3.47;;;23.80;71.60;;;;;;5040527;28;20481;-85
2022/07/26 12:31:31;;;;;;;3.57;3.37;;;23.70;72.30;;;;;;5025182;28;20561;-85
2022/07/26 12:33:59;;;;;;;3.50;3.20;;;23.60;73.30;;;;;;5021941;28;20453;-82
2022/07/26 12:36:26;;;;;;;4.00;3.70;;;23.60;73.80;;;;;;5019361;28;20476;-87
2022/07/26 12:39:03;;;;;;;4.13;3.70;;;23.60;74.50;;;;;;5019654;28;20462;-84
2022/07/26 12:41:38;;;;;;;3.90;3.70;;;23.60;74.80;;;;;;5023299;28;20489;-85
2022/07/26 12:44:06;;;;;;;5.50;3.40;;;23.80;75.10;;;;;;5023477;28;20453;-85
2022/07/26 12:46:34;;;;;;;4.03;3.40;;;23.90;75.00;;;;;;5017367;28;20506;-83
2022/07/26 12:49:03;;;;;;;3.80;3.40;;;24.10;74.80;;;;;;5036437;28;20533;-84
2022/07/26 12:51:31;;;;;;;4.30;4.00;;;24.30;74.10;;;;;;5042954;28;20474;-86
2022/07/26 12:53:58;;;;;;;4.47;4.07;;;24.50;73.70;;;;;;5025169;28;20451;-84
2022/07/26 12:56:25;;;;;;;5.63;3.73;;;24.60;73.90;;;;;;5021961;28;20458;-85
2022/07/26 12:58:52;;;;;;;4.87;3.53;;;24.80;73.30;;;;;;5012273;28;20785;-86
2022/07/26 13:01:20;;;;;;;4.77;3.97;;;25.10;72.60;;;;;;5050205;28;20467;-86
2022/07/26 13:03:47;;;;;;;5.50;3.63;;;25.10;71.90;;;;;;5022319;28;20450;-83
2022/07/26 13:06:14;;;;;;;6.30;3.97;;;25.10;71.90;;;;;;5037526;28;20522;-84
2022/07/26 13:08:47;;;;;;;6.77;4.50;;;25.10;72.50;;;;;;5021878;28;20465;-86